Latest Coastal Weather Observations for Hillarys Point Boat Harbour

IDW60701

Issued at 1:53 am WST Saturday 21 October 2017 (issued every 10 minutes, with the page automatically refreshed every 10 minutes)

About coastal observations | Map of coastal stations | Coastal observations for WA | Marine services | Other Formats
Station Details ID: 009265 Name: HILLARYS BOAT HARBOUR NTC AWS Lat: -31.83 Lon: 115.74 Height: 0.0 m
Data from the previous 72 hours. | See also: Recent months for locations in Western Australia
Date/Time
WST
Temp
°C
Wind Pressure Rain since
9am
mm
Weather Cloud Vis
km
Sea
Height
m
Swell
Dir  Spd
kts
Gust
kts
hPa Trend Height
m
Period
s
Dir
21/01:30am 21.0 E 8 15 1018.4 - - - - - - - - -
21/01:00am 21.4 E 6 13 1018.6 - - - - - - - - -
21/12:30am 21.9 E 5 11 1018.8 - - - - - - - - -
21/12:00am 21.9 E 3 9 1018.9 - - - - - - - - -
 
Date/Time
WST
Temp
°C
Wind Pressure Rain since
9am
mm
Weather Cloud Vis
km
Sea
Height
m
Swell
Dir  Spd
kts
Gust
kts
hPa Trend Height
m
Period
s
Dir
20/11:30pm 22.0 E 3 6 1019.4 - - - - - - - - -
20/11:00pm 22.5 E 4 7 1019.6 - - - - - - - - -
20/10:30pm 22.6 E 3 5 1020.0 - - - - - - - - -
20/10:00pm 22.6 E 2 7 1020.3 - - - - - - - - -
20/09:30pm 22.8 E 2 5 1020.6 - - - - - - - - -
20/09:00pm 23.0 E 1 4 1021.0 - - - - - - - - -
20/08:30pm 20.4 CALM 0 2 1021.0 - - - - - - - - -
20/08:00pm 19.5 SSE 1 3 1021.0 - - - - - - - - -
20/07:30pm 19.6 SSE 1 3 1020.7 - - - - - - - - -
20/07:00pm 19.9 SSE 3 5 1020.5 - - - - - - - - -
20/06:30pm 20.5 SSE 3 5 1020.3 - - - - - - - - -
20/06:00pm 21.3 S 4 7 1020.1 - - - - - - - - -
20/05:30pm 22.4 S 3 7 1019.9 - - - - - - - - -
20/05:27pm 23.6 SE 3 8 1019.9 - - - - - - - - -
20/05:00pm 29.4 E 3 9 1019.8 - - - - - - - - -
20/04:30pm 29.5 ESE 4 8 1020.0 - - - - - - - - -
20/04:00pm 29.5 ESE 3 7 1020.1 - - - - - - - - -
20/03:30pm 29.5 E 3 9 1020.0 - - - - - - - - -
20/03:00pm - ESE 4 9 1020.1 - - - - - - - - -
20/02:30pm - ENE 7 12 1020.4 - - - - - - - - -
20/02:00pm - ENE 7 14 1020.7 - - - - - - - - -
20/01:30pm - E 6 12 1020.8 - - - - - - - - -
20/01:00pm - E 6 12 1021.3 - - - - - - - - -
20/12:30pm - ENE 7 16 1021.6 - - - - - - - - -
20/12:00pm - ENE 8 17 1022.1 - - - - - - - - -
20/11:30am - ENE 9 15 1022.3 - - - - - - - - -
20/11:00am - ENE 9 15 1022.6 - - - - - - - - -
20/10:30am - NE 10 21 1022.8 - - - - - - - - -
20/10:00am - NE 10 20 1023.1 - - - - - - - - -
20/09:30am - ENE 11 19 1023.2 - - - - - - - - -
20/09:00am - ENE 12 18 1023.4 - - - - - - - - -
20/08:30am - ENE 14 22 1023.4 - - - - - - - - -
20/08:00am - ENE 14 22 1023.1 - - - - - - - - -
20/07:30am - ENE 12 19 1023.1 - - - - - - - - -
20/07:00am - ENE 11 17 1023.0 - - - - - - - - -
20/06:30am - ENE 9 15 1022.8 - - - - - - - - -
20/06:00am - ENE 9 14 1022.7 - - - - - - - - -
20/05:30am - ENE 9 15 1022.4 - - - - - - - - -
20/05:00am - ENE 9 15 1022.1 - - - - - - - - -
20/04:30am - ENE 10 18 1021.8 - - - - - - - - -
20/04:00am - ENE 10 16 1021.5 - - - - - - - - -
20/03:30am - ENE 10 20 1021.6 - - - - - - - - -
20/03:00am - E 9 16 1021.9 - - - - - - - - -
20/02:30am - E 8 13 1021.8 - - - - - - - - -
20/02:00am - E 8 14 1022.0 - - - - - - - - -
20/01:30am - E 6 12 1022.2 - - - - - - - - -
20/01:00am - E 3 9 1022.4 - - - - - - - - -
20/12:30am - ESE 1 4 1022.6 - - - - - - - - -
20/12:00am - S 2 4 1022.9 - - - - - - - - -
 
Date/Time
WST
Temp
°C
Wind Pressure Rain since
9am
mm
Weather Cloud Vis
km
Sea
Height
m
Swell
Dir  Spd
kts
Gust
kts
hPa Trend Height
m
Period
s
Dir
19/11:30pm - CALM 0 2 1023.1 - - - - - - - - -
19/11:00pm - SE 1 3 1023.3 - - - - - - - - -
19/10:30pm - SSE 1 4 1023.5 - - - - - - - - -
19/10:00pm - SSE 2 4 1023.7 - - - - - - - - -
19/09:30pm - SE 2 4 1023.9 - - - - - - - - -
19/09:00pm - S 2 5 1024.0 - - - - - - - - -
19/08:30pm - SSE 4 8 1024.1 - - - - - - - - -
19/08:00pm - S 3 8 1024.4 - - - - - - - - -
19/07:30pm - S 3 10 1024.3 - - - - - - - - -
19/07:00pm - S 4 11 1024.0 - - - - - - - - -
19/06:30pm - SSW 4 11 1024.1 - - - - - - - - -
19/06:00pm - SSW 5 11 1023.8 - - - - - - - - -
19/05:30pm - SSW 10 18 1023.4 - - - - - - - - -
19/05:00pm - SSW 8 16 1023.1 - - - - - - - - -
19/04:30pm - SW 8 15 1022.8 - - - - - - - - -
19/04:00pm - SSW 6 13 1022.4 - - - - - - - - -
19/03:30pm - ENE 7 12 1022.4 - - - - - - - - -
19/03:00pm - E 4 10 1022.5 - - - - - - - - -
19/02:30pm - ESE 3 8 1022.7 - - - - - - - - -
19/02:00pm - ESE 6 11 1022.9 - - - - - - - - -
19/01:30pm - ENE 7 14 1023.4 - - - - - - - - -
19/01:00pm - ENE 7 15 1023.9 - - - - - - - - -
19/12:30pm - E 5 11 1024.3 - - - - - - - - -
19/12:00pm - E 6 13 1024.6 - - - - - - - - -
19/11:30am - ENE 7 14 1025.0 - - - - - - - - -
19/11:00am - ENE 9 15 1025.3 - - - - - - - - -
19/10:30am - ENE 8 15 1025.7 - - - - - - - - -
19/10:00am - E 5 12 1026.0 - - - - - - - - -
19/09:30am - E 6 11 1026.2 - - - - - - - - -
19/09:00am - E 7 13 1026.4 - - - - - - - - -
19/08:30am - E 8 16 1026.5 - - - - - - - - -
19/08:00am - E 8 15 1026.6 - - - - - - - - -
19/07:30am - E 9 18 1026.6 - - - - - - - - -
19/07:00am - E 5 10 1026.4 - - - - - - - - -
19/06:30am - E 4 9 1026.3 - - - - - - - - -
19/06:00am - ESE 1 4 1026.0 - - - - - - - - -
19/05:30am - E 1 3 1025.8 - - - - - - - - -
19/05:00am - ESE 1 4 1025.8 - - - - - - - - -
19/04:30am - SE 1 4 1025.4 - - - - - - - - -
19/04:00am - E 1 5 1025.2 - - - - - - - - -
19/03:30am - SE 2 7 1025.0 - - - - - - - - -
19/03:00am 11.8 SE 2 7 1024.9 - - - - - - - - -
19/02:30am 11.9 SE 2 7 1024.8 - - - - - - - - -
19/02:00am 12.1 SE 2 6 1024.6 - - - - - - - - -
19/01:30am 12.2 ESE 2 5 1024.6 - - - - - - - - -
19/01:00am 12.8 SSE 3 6 1024.7 - - - - - - - - -
19/12:30am 13.2 SE 3 6 1024.7 - - - - - - - - -
19/12:00am 12.9 ESE 1 3 1024.9 - - - - - - - - -
 
Date/Time
WST
Temp
°C
Wind Pressure Rain since
9am
mm
Weather Cloud Vis
km
Sea
Height
m
Swell
Dir  Spd
kts
Gust
kts
hPa Trend Height
m
Period
s
Dir
18/11:30pm 13.5 ESE 1 5 1024.7 - - - - - - - - -
18/11:00pm 13.7 SE 2 5 1024.8 - - - - - - - - -
18/10:30pm 14.1 SE 3 6 1024.7 - - - - - - - - -
18/10:00pm 14.5 SSE 5 10 1024.7 - - - - - - - - -
18/09:30pm 14.6 SSE 5 9 1024.6 - - - - - - - - -
18/09:00pm 14.9 SSE 5 9 1024.5 - - - - - - - - -
18/08:30pm 15.3 SSE 6 12 1024.1 - - - - - - - - -
18/08:00pm 15.5 SSW 4 10 1023.6 - - - - - - - - -
18/07:30pm 15.6 SSW 5 11 1023.4 - - - - - - - - -
18/07:00pm 15.7 SSW 5 11 1023.0 - - - - - - - - -
18/06:30pm 15.7 SSW 6 12 1022.7 - - - - - - - - -
18/06:00pm 16.0 SSW 6 12 1022.5 - - - - - - - - -
18/05:30pm 16.0 SSW 7 13 1022.1 - - - - - - - - -
18/05:00pm 16.4 SSW 6 11 1021.8 - - - - - - - - -
18/04:30pm 16.4 SSW 7 12 1021.5 - - - - - - - - -
18/04:00pm 16.5 SSW 7 14 1021.2 - - - - - - - - -
18/03:30pm 16.8 SW 7 13 1021.2 - - - - - - - - -
18/03:00pm 16.8 SSW 7 13 1021.0 - - - - - - - - -
18/02:30pm 16.3 SW 8 14 1020.8 - - - - - - - - -
18/02:00pm 16.7 SSW 7 12 1021.0 - - - - - - - - -
18/01:30pm 16.7 SSW 8 12 1021.0 - - - - - - - - -
18/01:00pm 16.4 SW 8 14 1020.9 - - - - - - - - -
18/12:30pm 16.3 SW 9 15 1020.8 - - - - - - - - -
18/12:00pm 16.4 SSW 7 13 1020.7 - - - - - - - - -
18/11:30am 16.3 WSW 11 15 1020.6 - - - - - - - - -
18/11:00am 16.2 WSW 12 18 1020.5 - - - - - - - - -
18/10:30am 16.4 SW 11 16 1020.4 - - - - - - - - -
18/10:00am 16.2 SW 10 15 1020.2 - - - - - - - - -
18/09:30am 16.0 SW 10 15 1019.9 - - - - - - - - -
18/09:00am 16.0 SW 10 14 1019.7 - - - - - - - - -
18/08:30am 15.9 SW 9 14 1019.2 - - - - - - - - -
18/08:00am 15.8 SW 10 13 1018.8 - - - - - - - - -
18/07:30am 15.4 SW 9 13 1018.4 - - - - - - - - -
18/07:00am 15.2 SW 13 18 1017.9 - - - - - - - - -
18/06:30am 15.7 WSW 12 17 1017.3 - - - - - - - - -
18/06:00am 15.7 WSW 13 18 1016.7 - - - - - - - - -
18/05:30am 15.8 WSW 12 17 1016.4 - - - - - - - - -
18/05:00am 15.7 WSW 13 17 1015.9 - - - - - - - - -
18/04:30am 15.7 SW 13 18 1015.6 - - - - - - - - -
18/04:00am 15.7 SW 13 18 1015.1 - - - - - - - - -
18/03:30am 16.1 WSW 14 20 1014.7 - - - - - - - - -
18/03:00am 16.0 WSW 15 21 1014.3 - - - - - - - - -
18/02:30am 16.1 SW 13 19 1014.1 - - - - - - - - -
18/02:00am 15.8 SW 14 20 1013.7 - - - - - - - - -

Other Formats:

Comma delimited format used in spreadsheet applications
http://www.bom.gov.au/fwo/IDW60701/IDW60701.95605.axf

JavaScript Object Notation format (JSON) in row-major order
http://www.bom.gov.au/fwo/IDW60701/IDW60701.95605.json